createdAt,value
2022-08-22T00:01:14.203Z,18.60
2022-08-22T00:03:52.759Z,18.50
2022-08-22T00:06:27.670Z,18.50
2022-08-22T00:09:06.634Z,18.40
2022-08-22T00:11:42.892Z,18.50
2022-08-22T00:14:17.944Z,18.50
2022-08-22T00:16:53.497Z,18.60
2022-08-22T00:19:25.745Z,18.50
2022-08-22T00:22:00.193Z,18.40
2022-08-22T00:24:33.925Z,18.40
2022-08-22T00:27:05.310Z,18.50
2022-08-22T00:29:39.211Z,18.60
2022-08-22T00:32:13.332Z,18.50
2022-08-22T00:34:53.043Z,18.50
2022-08-22T00:37:25.920Z,18.50
2022-08-22T00:40:03.336Z,18.40
2022-08-22T00:42:53.213Z,18.40
2022-08-22T00:45:54.108Z,18.40
2022-08-22T00:48:35.645Z,18.30
2022-08-22T00:51:28.366Z,18.30
2022-08-22T00:54:03.267Z,18.40
2022-08-22T00:56:58.629Z,18.40
2022-08-22T00:59:40.055Z,18.30
2022-08-22T01:02:24.222Z,18.30
2022-08-22T01:05:06.203Z,18.30
2022-08-22T01:07:54.047Z,18.20
2022-08-22T01:10:38.631Z,18.20
2022-08-22T01:13:19.875Z,18.20
2022-08-22T01:15:50.287Z,18.10
2022-08-22T01:18:34.062Z,18.20
2022-08-22T01:21:34.560Z,18.20
2022-08-22T01:24:40.433Z,17.90
2022-08-22T01:27:30.897Z,17.70
2022-08-22T01:30:19.787Z,18.00
2022-08-22T01:33:22.752Z,18.00
2022-08-22T01:36:13.940Z,18.00
2022-08-22T01:39:00.401Z,18.10
2022-08-22T01:42:12.745Z,18.00
2022-08-22T01:45:18.383Z,18.00
2022-08-22T01:47:53.626Z,17.90
2022-08-22T01:50:26.013Z,18.00
2022-08-22T01:53:02.355Z,17.90
2022-08-22T01:55:34.751Z,18.00
2022-08-22T01:58:04.207Z,18.00
2022-08-22T02:00:51.224Z,18.00
2022-08-22T02:03:25.218Z,18.00
2022-08-22T02:06:02.590Z,17.90
2022-08-22T02:08:40.352Z,17.90
2022-08-22T02:11:09.771Z,17.90
2022-08-22T02:13:48.668Z,17.90
2022-08-22T02:16:25.396Z,17.90
2022-08-22T02:19:04.592Z,17.90
2022-08-22T02:21:42.673Z,17.80
2022-08-22T02:24:34.409Z,17.40
2022-08-22T02:27:08.425Z,17.40
2022-08-22T02:29:42.237Z,17.60
2022-08-22T02:32:19.018Z,17.70
2022-08-22T02:34:58.673Z,17.70
2022-08-22T02:37:34.972Z,17.70
2022-08-22T02:40:09.510Z,17.70
2022-08-22T02:42:43.755Z,17.70
2022-08-22T02:45:18.791Z,17.70
2022-08-22T02:47:51.240Z,17.70
2022-08-22T02:50:23.581Z,17.60
2022-08-22T02:52:57.521Z,17.60
2022-08-22T02:55:37.880Z,17.60
2022-08-22T02:58:08.568Z,17.60
2022-08-22T03:00:46.426Z,17.60
2022-08-22T03:03:21.785Z,17.60
2022-08-22T03:06:00.878Z,17.60
2022-08-22T03:08:31.113Z,17.60
2022-08-22T03:11:08.543Z,17.50
2022-08-22T03:13:48.058Z,17.50
2022-08-22T03:16:21.933Z,17.50
2022-08-22T03:18:59.370Z,17.50
2022-08-22T03:21:31.976Z,17.40
2022-08-22T03:24:07.102Z,17.40
2022-08-22T03:26:46.745Z,17.40
2022-08-22T03:29:18.424Z,17.30
2022-08-22T03:32:08.661Z,17.30
2022-08-22T03:34:36.713Z,17.30
2022-08-22T03:37:12.911Z,17.40
2022-08-22T03:39:51.600Z,17.40
2022-08-22T03:42:54.936Z,17.40
2022-08-22T03:45:43.641Z,17.40
2022-08-22T03:48:45.161Z,17.40
2022-08-22T03:51:22.209Z,17.30
2022-08-22T03:54:17.403Z,17.40
2022-08-22T03:57:17.537Z,17.20
2022-08-22T04:00:13.908Z,17.20
2022-08-22T04:03:19.557Z,17.30
2022-08-22T04:06:17.812Z,17.20
2022-08-22T04:09:03.132Z,17.20
2022-08-22T04:12:09.670Z,17.30
2022-08-22T04:14:59.244Z,17.20
2022-08-22T04:17:40.875Z,17.20
2022-08-22T04:20:36.647Z,17.20
2022-08-22T04:23:32.869Z,17.10
2022-08-22T04:26:12.104Z,17.10
2022-08-22T04:28:43.516Z,17.20
2022-08-22T04:31:12.449Z,17.20
2022-08-22T04:33:46.033Z,17.20
2022-08-22T04:36:19.066Z,17.10
2022-08-22T04:38:50.437Z,17.00
2022-08-22T04:41:21.580Z,17.00
2022-08-22T04:43:54.740Z,17.10
2022-08-22T04:46:25.845Z,17.00
2022-08-22T04:49:07.764Z,17.00
2022-08-22T04:51:38.521Z,17.00
2022-08-22T04:54:25.901Z,17.00
2022-08-22T04:57:10.871Z,17.00
2022-08-22T04:59:38.609Z,17.00
2022-08-22T05:02:09.343Z,17.00
2022-08-22T05:04:41.065Z,17.00
2022-08-22T05:07:12.923Z,17.00
2022-08-22T05:09:46.057Z,17.00
2022-08-22T05:12:18.322Z,17.00
2022-08-22T05:14:51.701Z,17.00
2022-08-22T05:17:25.163Z,17.00
2022-08-22T05:19:55.312Z,17.10
2022-08-22T05:22:28.281Z,17.10
2022-08-22T05:24:59.471Z,17.10
2022-08-22T05:27:29.446Z,17.10
2022-08-22T05:30:02.777Z,17.10
2022-08-22T05:32:35.378Z,17.10
2022-08-22T05:35:08.313Z,17.10
2022-08-22T05:37:42.061Z,17.00
2022-08-22T05:40:18.838Z,17.00
2022-08-22T05:42:46.853Z,17.10
2022-08-22T05:45:16.767Z,17.10
2022-08-22T05:47:48.114Z,17.20
2022-08-22T05:50:19.978Z,17.20
2022-08-22T05:53:01.865Z,17.20
2022-08-22T05:55:31.340Z,17.30
2022-08-22T05:58:28.866Z,17.30
2022-08-22T06:01:03.826Z,17.30
2022-08-22T06:03:35.252Z,17.30
2022-08-22T06:06:10.213Z,17.40
2022-08-22T06:08:39.490Z,17.40
2022-08-22T06:11:11.894Z,17.50
2022-08-22T06:13:42.221Z,17.50
2022-08-22T06:16:15.466Z,17.50
2022-08-22T06:18:44.698Z,17.60
2022-08-22T06:21:18.861Z,17.60
2022-08-22T06:23:46.768Z,17.70
2022-08-22T06:26:21.202Z,17.70
2022-08-22T06:28:54.622Z,17.70
2022-08-22T06:31:26.981Z,17.80
2022-08-22T06:33:57.809Z,17.90
2022-08-22T06:36:26.885Z,17.90
2022-08-22T06:38:59.844Z,18.00
2022-08-22T06:41:30.690Z,18.00
2022-08-22T06:43:59.283Z,18.00
2022-08-22T06:46:28.934Z,18.00
2022-08-22T06:49:00.206Z,18.10
2022-08-22T06:51:29.738Z,18.10
2022-08-22T06:54:01.669Z,18.10
2022-08-22T06:56:33.990Z,18.20
2022-08-22T06:59:06.864Z,18.20
2022-08-22T07:01:35.853Z,18.20
2022-08-22T07:04:05.672Z,18.30
2022-08-22T07:06:36.434Z,18.40
2022-08-22T07:09:06.742Z,18.50
2022-08-22T07:11:38.578Z,18.50
2022-08-22T07:14:08.217Z,18.60
2022-08-22T07:16:40.977Z,18.60
2022-08-22T07:19:09.833Z,18.60
2022-08-22T07:21:46.939Z,18.70
2022-08-22T07:24:17.564Z,18.70
2022-08-22T07:26:50.877Z,18.70
2022-08-22T07:29:28.845Z,18.80
2022-08-22T07:32:06.190Z,18.90
2022-08-22T07:34:45.019Z,18.90
2022-08-22T07:37:18.157Z,18.90
2022-08-22T07:39:51.701Z,19.00
2022-08-22T07:42:27.479Z,19.00
2022-08-22T07:45:05.480Z,19.10
2022-08-22T07:47:49.664Z,19.10
2022-08-22T07:50:20.302Z,19.10
2022-08-22T07:52:49.557Z,19.20
2022-08-22T07:55:19.493Z,19.20
2022-08-22T07:57:51.233Z,19.20
2022-08-22T08:00:20.462Z,19.20
2022-08-22T08:02:51.376Z,19.20
2022-08-22T08:05:20.217Z,19.30
2022-08-22T08:07:48.973Z,19.30
2022-08-22T08:10:19.566Z,19.30
2022-08-22T08:13:00.564Z,19.30
2022-08-22T08:15:32.519Z,19.40
2022-08-22T08:18:03.013Z,19.40
2022-08-22T08:20:30.357Z,19.40
2022-08-22T08:22:59.988Z,19.50
2022-08-22T08:25:30.038Z,19.50
2022-08-22T08:27:59.175Z,19.50
2022-08-22T08:30:34.867Z,19.50
2022-08-22T08:33:24.295Z,19.60
2022-08-22T08:36:03.412Z,19.60
2022-08-22T08:38:40.932Z,19.60
2022-08-22T08:41:41.651Z,19.60
2022-08-22T08:44:25.463Z,19.70
2022-08-22T08:47:20.417Z,19.70
2022-08-22T08:50:10.513Z,20.10
2022-08-22T08:52:57.786Z,20.50
2022-08-22T08:55:42.527Z,20.60
2022-08-22T08:58:25.500Z,20.70
2022-08-22T09:01:02.082Z,20.70
2022-08-22T09:03:58.296Z,20.80
2022-08-22T09:06:56.686Z,20.90
2022-08-22T09:09:52.603Z,20.80
2022-08-22T09:12:57.054Z,21.00
2022-08-22T09:15:59.743Z,21.20
2022-08-22T09:19:00.428Z,21.30
2022-08-22T09:21:56.961Z,21.10
2022-08-22T09:24:53.200Z,21.20
2022-08-22T09:27:30.573Z,21.10
2022-08-22T09:30:05.955Z,21.50
2022-08-22T09:32:48.473Z,21.40
2022-08-22T09:35:24.986Z,21.40
2022-08-22T09:38:07.561Z,21.60
2022-08-22T09:40:43.316Z,21.60
2022-08-22T09:43:19.848Z,21.60
2022-08-22T09:45:58.314Z,21.80
2022-08-22T09:48:45.980Z,21.90
2022-08-22T09:51:32.201Z,21.70
2022-08-22T09:54:31.485Z,21.80
2022-08-22T09:57:13.883Z,21.80
2022-08-22T09:59:54.792Z,22.10
2022-08-22T10:02:33.571Z,22.20
2022-08-22T10:05:11.960Z,22.00
2022-08-22T10:08:11.438Z,21.90
2022-08-22T10:10:56.450Z,21.90
2022-08-22T10:13:36.034Z,21.90
2022-08-22T10:16:17.733Z,21.90
2022-08-22T10:19:00.539Z,22.10
2022-08-22T10:21:34.580Z,22.10
2022-08-22T10:24:09.756Z,22.20
2022-08-22T10:26:46.217Z,22.30
2022-08-22T10:29:37.890Z,22.20
2022-08-22T10:32:16.480Z,22.10
2022-08-22T10:34:47.932Z,22.10
2022-08-22T10:37:24.103Z,22.30
2022-08-22T10:39:57.717Z,22.60
2022-08-22T10:42:27.911Z,22.50
2022-08-22T10:45:12.770Z,22.60
2022-08-22T10:48:22.369Z,22.50
2022-08-22T10:50:55.086Z,22.70
2022-08-22T10:53:29.381Z,22.80
2022-08-22T10:56:06.866Z,22.90
2022-08-22T10:58:40.310Z,22.80
2022-08-22T11:01:41.634Z,22.60
2022-08-22T11:04:06.242Z,22.70
2022-08-22T11:06:42.215Z,22.90
2022-08-22T11:09:24.678Z,22.80
2022-08-22T11:12:02.173Z,23.00
2022-08-22T11:15:09.435Z,23.00
2022-08-22T11:18:06.617Z,23.00
2022-08-22T11:20:52.675Z,23.20
2022-08-22T11:23:31.473Z,23.30
2022-08-22T11:26:07.052Z,23.40
2022-08-22T11:29:13.323Z,23.30
2022-08-22T11:31:51.565Z,23.10
2022-08-22T11:34:35.012Z,23.00
2022-08-22T11:37:11.596Z,23.10
2022-08-22T11:39:44.894Z,23.30
2022-08-22T11:42:21.988Z,23.30
2022-08-22T11:44:52.724Z,23.20
2022-08-22T11:47:26.376Z,23.40
2022-08-22T11:49:59.274Z,23.30
2022-08-22T11:52:56.909Z,23.40
2022-08-22T11:55:34.561Z,23.40
2022-08-22T11:58:16.369Z,23.60
2022-08-22T12:00:53.969Z,23.60
2022-08-22T12:04:00.279Z,23.60
2022-08-22T12:06:39.126Z,23.60
2022-08-22T12:09:52.106Z,23.70
2022-08-22T12:12:33.456Z,23.50
2022-08-22T12:15:11.091Z,23.60
2022-08-22T12:18:15.340Z,23.50
2022-08-22T12:21:15.903Z,23.40
2022-08-22T12:24:19.012Z,23.60
2022-08-22T12:26:58.377Z,23.70
2022-08-22T12:29:44.751Z,23.70
2022-08-22T12:32:39.802Z,23.80
2022-08-22T12:35:30.034Z,23.60
2022-08-22T12:38:28.102Z,23.70
2022-08-22T12:41:28.518Z,23.70
2022-08-22T12:44:23.256Z,23.70
2022-08-22T12:47:06.295Z,23.90
2022-08-22T12:49:49.821Z,23.90
2022-08-22T12:52:34.421Z,23.80
2022-08-22T12:55:32.830Z,23.70
2022-08-22T12:58:09.418Z,24.10
2022-08-22T13:00:38.463Z,23.90
2022-08-22T13:03:10.884Z,23.70
2022-08-22T13:05:44.003Z,23.50
2022-08-22T13:08:17.401Z,23.30
2022-08-22T13:10:47.581Z,23.40
2022-08-22T13:13:31.664Z,23.60
2022-08-22T13:16:07.513Z,23.60
2022-08-22T13:18:40.122Z,23.60
2022-08-22T13:21:16.801Z,23.50
2022-08-22T13:23:51.616Z,23.70
2022-08-22T13:26:26.950Z,23.90
2022-08-22T13:29:24.483Z,23.70
2022-08-22T13:31:53.457Z,23.50
2022-08-22T13:34:38.477Z,23.60
2022-08-22T13:37:11.601Z,23.80
2022-08-22T13:39:43.016Z,23.70
2022-08-22T13:42:20.373Z,23.60
2022-08-22T13:44:59.367Z,23.60
2022-08-22T13:47:31.787Z,23.60
2022-08-22T13:50:09.106Z,23.80
2022-08-22T13:52:44.133Z,23.70
2022-08-22T13:55:24.168Z,23.60
2022-08-22T13:58:00.801Z,23.70
2022-08-22T14:00:57.874Z,23.90
2022-08-22T14:03:31.768Z,23.90
2022-08-22T14:06:26.579Z,23.80
2022-08-22T14:08:48.588Z,23.70
2022-08-22T14:11:22.407Z,23.50
2022-08-22T14:13:53.958Z,23.70
2022-08-22T14:16:26.848Z,23.70
2022-08-22T14:18:57.405Z,23.70
2022-08-22T14:21:40.754Z,23.70
2022-08-22T14:24:19.974Z,23.80
2022-08-22T14:26:57.839Z,23.80
2022-08-22T14:29:28.161Z,23.80
2022-08-22T14:32:02.731Z,23.60
2022-08-22T14:34:32.789Z,23.50
2022-08-22T14:37:06.615Z,23.40
2022-08-22T14:39:39.271Z,23.40
2022-08-22T14:42:14.945Z,23.30
2022-08-22T14:44:54.290Z,23.30
2022-08-22T14:47:54.060Z,23.30
2022-08-22T14:50:38.197Z,23.30
2022-08-22T14:53:09.121Z,23.30
2022-08-22T14:55:39.088Z,23.30
2022-08-22T14:58:15.938Z,23.40
2022-08-22T15:00:47.449Z,23.40
2022-08-22T15:03:25.325Z,23.30
2022-08-22T15:05:55.954Z,23.30
2022-08-22T15:08:31.250Z,23.40
2022-08-22T15:11:20.368Z,23.40
2022-08-22T15:13:56.598Z,23.30
2022-08-22T15:16:30.317Z,23.40
2022-08-22T15:18:58.941Z,23.40
2022-08-22T15:21:28.186Z,23.30
2022-08-22T15:23:59.411Z,23.40
2022-08-22T15:26:30.813Z,23.40
2022-08-22T15:29:08.631Z,23.40
2022-08-22T15:31:37.903Z,23.40
2022-08-22T15:34:13.738Z,23.40
2022-08-22T15:37:00.857Z,23.40
2022-08-22T15:39:56.910Z,23.40
2022-08-22T15:42:25.909Z,23.40
2022-08-22T15:44:54.525Z,23.50
2022-08-22T15:47:30.418Z,23.50
2022-08-22T15:50:02.765Z,23.40
2022-08-22T15:52:35.607Z,23.50
2022-08-22T15:55:20.847Z,23.50
2022-08-22T15:57:59.703Z,23.50
2022-08-22T16:00:33.823Z,23.60
2022-08-22T16:03:04.421Z,23.60
2022-08-22T16:05:54.570Z,23.60
2022-08-22T16:08:27.640Z,23.60
2022-08-22T16:11:25.471Z,23.60
2022-08-22T16:14:16.953Z,23.50
2022-08-22T16:17:01.530Z,23.50
2022-08-22T16:19:29.539Z,23.50
2022-08-22T16:22:11.154Z,23.50
2022-08-22T16:25:00.838Z,23.50
2022-08-22T16:27:30.156Z,23.50
2022-08-22T16:30:12.525Z,23.50
2022-08-22T16:32:39.736Z,23.40
2022-08-22T16:35:07.137Z,23.40
2022-08-22T16:37:48.576Z,23.40
2022-08-22T16:40:22.916Z,23.40
2022-08-22T16:43:07.981Z,23.40
2022-08-22T16:45:37.820Z,23.40
2022-08-22T16:48:16.709Z,23.30
2022-08-22T16:50:43.699Z,23.30
2022-08-22T16:53:36.884Z,23.20
2022-08-22T16:56:24.968Z,23.20
2022-08-22T16:59:23.363Z,23.20
2022-08-22T17:02:10.333Z,23.20
2022-08-22T17:04:48.428Z,23.20
2022-08-22T17:07:33.176Z,23.20
2022-08-22T17:10:31.646Z,23.10
2022-08-22T17:13:26.485Z,23.10
2022-08-22T17:16:07.915Z,23.10
2022-08-22T17:18:58.068Z,23.00
2022-08-22T17:21:28.929Z,23.00
2022-08-22T17:24:04.236Z,23.00
2022-08-22T17:26:46.692Z,23.00
2022-08-22T17:29:22.221Z,23.00
2022-08-22T17:31:54.886Z,22.90
2022-08-22T17:34:33.145Z,22.90
2022-08-22T17:37:08.459Z,22.90
2022-08-22T17:39:58.732Z,22.90
2022-08-22T17:42:57.213Z,22.80
2022-08-22T17:45:37.091Z,22.80
2022-08-22T17:48:11.962Z,22.80
2022-08-22T17:50:44.794Z,22.80
2022-08-22T17:53:23.465Z,22.70
2022-08-22T17:56:00.233Z,22.70
2022-08-22T17:58:43.258Z,22.70
2022-08-22T18:01:14.191Z,22.60
2022-08-22T18:03:49.546Z,22.60
2022-08-22T18:06:21.709Z,22.50
2022-08-22T18:11:46.120Z,22.50
2022-08-22T18:14:25.809Z,22.50
2022-08-22T18:16:55.221Z,22.40
2022-08-22T18:19:43.392Z,22.40
2022-08-22T18:22:18.691Z,22.40
2022-08-22T18:24:50.892Z,22.30
2022-08-22T18:27:29.963Z,22.30
2022-08-22T18:30:06.952Z,22.20
2022-08-22T18:32:40.045Z,22.20
2022-08-22T18:35:17.413Z,22.20
2022-08-22T18:37:54.045Z,22.10
2022-08-22T18:40:28.484Z,22.10
2022-08-22T18:43:04.213Z,22.00
2022-08-22T18:45:54.695Z,22.00
2022-08-22T18:48:28.489Z,22.00
2022-08-22T18:51:24.319Z,21.90
2022-08-22T18:53:54.515Z,21.80
2022-08-22T18:56:49.379Z,21.80
2022-08-22T18:59:34.871Z,21.80
2022-08-22T19:02:16.625Z,21.70
2022-08-22T19:05:10.048Z,21.60
2022-08-22T19:07:54.387Z,21.60
2022-08-22T19:10:54.029Z,21.50
2022-08-22T19:13:53.650Z,21.50
2022-08-22T19:16:46.360Z,21.40
2022-08-22T19:19:19.412Z,21.40
2022-08-22T19:22:24.634Z,21.30
2022-08-22T19:25:18.215Z,21.30
2022-08-22T19:28:06.281Z,21.20
2022-08-22T19:30:44.243Z,21.20
2022-08-22T19:33:12.177Z,21.10
2022-08-22T19:36:05.423Z,21.10
2022-08-22T19:38:53.628Z,21.10
2022-08-22T19:41:48.097Z,21.00
2022-08-22T19:44:40.436Z,21.00
2022-08-22T19:47:24.124Z,21.00
2022-08-22T19:49:58.116Z,20.90
2022-08-22T19:52:36.085Z,20.80
2022-08-22T19:55:11.133Z,20.80
2022-08-22T19:57:44.447Z,20.80
2022-08-22T20:00:14.723Z,20.70
2022-08-22T20:02:55.817Z,20.70
2022-08-22T20:05:37.595Z,20.70
2022-08-22T20:08:26.597Z,20.70
2022-08-22T20:11:02.373Z,20.60
2022-08-22T20:13:32.749Z,20.60
2022-08-22T20:16:11.903Z,20.50
2022-08-22T20:19:12.848Z,20.50
2022-08-22T20:21:45.390Z,20.50
2022-08-22T20:24:19.138Z,20.50
2022-08-22T20:27:10.384Z,20.50
2022-08-22T20:29:41.953Z,20.40
2022-08-22T20:32:08.892Z,20.30
2022-08-22T20:34:38.481Z,20.30
2022-08-22T20:37:29.014Z,20.20
2022-08-22T20:39:59.198Z,20.20
2022-08-22T20:42:28.612Z,20.10
2022-08-22T20:44:58.811Z,20.10
2022-08-22T20:47:30.323Z,20.00
2022-08-22T20:50:10.740Z,20.00
2022-08-22T20:52:39.436Z,20.00
2022-08-22T20:55:11.905Z,20.00
2022-08-22T20:57:45.536Z,20.00
2022-08-22T21:00:16.961Z,20.00
2022-08-22T21:02:55.078Z,19.90
2022-08-22T21:05:24.701Z,19.90
2022-08-22T21:08:05.248Z,19.80
2022-08-22T21:10:35.087Z,19.80
2022-08-22T21:13:08.342Z,19.70
2022-08-22T21:15:38.479Z,19.60
2022-08-22T21:18:05.743Z,19.70
2022-08-22T21:20:35.876Z,19.80
2022-08-22T21:23:06.078Z,19.80
2022-08-22T21:25:46.068Z,19.70
2022-08-22T21:28:24.156Z,19.70
2022-08-22T21:30:52.278Z,19.70
2022-08-22T21:33:23.574Z,19.60
2022-08-22T21:35:57.069Z,19.60
2022-08-22T21:38:23.987Z,19.60
2022-08-22T21:40:51.227Z,19.50
2022-08-22T21:43:30.391Z,19.50
2022-08-22T21:45:58.662Z,19.40
2022-08-22T21:48:37.924Z,19.40
2022-08-22T21:51:26.967Z,19.30
2022-08-22T21:54:21.675Z,19.40
2022-08-22T21:56:49.717Z,19.40
2022-08-22T21:59:24.970Z,19.40
2022-08-22T22:01:55.431Z,19.10
2022-08-22T22:04:22.609Z,19.00
2022-08-22T22:06:49.334Z,19.00
2022-08-22T22:09:16.040Z,19.10
2022-08-22T22:11:42.777Z,19.20
2022-08-22T22:14:09.497Z,19.10
2022-08-22T22:16:36.219Z,19.10
2022-08-22T22:19:07.443Z,19.10
2022-08-22T22:21:34.237Z,19.20
2022-08-22T22:24:00.960Z,19.10
2022-08-22T22:26:27.717Z,19.00
2022-08-22T22:28:54.478Z,18.90
2022-08-22T22:31:21.288Z,18.80
2022-08-22T22:33:48.045Z,18.80
2022-08-22T22:36:21.026Z,18.90
2022-08-22T22:38:51.524Z,18.90
2022-08-22T22:41:19.370Z,19.00
2022-08-22T22:43:46.071Z,18.90
2022-08-22T22:46:12.808Z,18.90
2022-08-22T22:48:39.560Z,18.90
2022-08-22T22:51:07.915Z,18.80
2022-08-22T22:53:38.384Z,18.80
2022-08-22T22:56:06.770Z,18.80
2022-08-22T22:58:34.816Z,18.80
2022-08-22T23:01:07.469Z,18.80
2022-08-22T23:03:34.226Z,18.80
2022-08-22T23:06:01.075Z,18.80
2022-08-22T23:08:28.028Z,18.70
2022-08-22T23:10:56.092Z,18.70
2022-08-22T23:13:22.781Z,18.70
2022-08-22T23:15:49.464Z,18.70
2022-08-22T23:18:16.179Z,18.60
2022-08-22T23:20:42.894Z,18.60
2022-08-22T23:23:09.588Z,18.60
2022-08-22T23:25:36.323Z,18.60
2022-08-22T23:28:04.501Z,18.60
2022-08-22T23:30:31.232Z,18.50
2022-08-22T23:32:58.045Z,18.50
2022-08-22T23:35:24.748Z,18.40
2022-08-22T23:37:51.472Z,18.40
2022-08-22T23:40:18.407Z,18.40
2022-08-22T23:42:45.217Z,18.40
2022-08-22T23:45:13.295Z,18.50
2022-08-22T23:47:40.037Z,18.40
2022-08-22T23:50:07.160Z,18.40
2022-08-22T23:52:33.965Z,18.30
2022-08-22T23:55:00.703Z,18.30
2022-08-22T23:57:27.851Z,18.20
2022-08-22T23:59:57.662Z,18.10
